sensor_id;sensor_type;location;lat;lon;timestamp;temperature;humidity
20698;DHT22;10508;50.956;4.640;2023-01-25T00:01:54;2.60;99.90
20698;DHT22;10508;50.956;4.640;2023-01-25T00:04:21;2.60;99.90
20698;DHT22;10508;50.956;4.640;2023-01-25T00:06:47;2.70;99.90
20698;DHT22;10508;50.956;4.640;2023-01-25T00:09:14;2.70;99.90
20698;DHT22;10508;50.956;4.640;2023-01-25T00:11:40;2.70;99.90
20698;DHT22;10508;50.956;4.640;2023-01-25T00:14:06;2.70;99.90
20698;DHT22;10508;50.956;4.640;2023-01-25T00:16:32;2.70;99.90
20698;DHT22;10508;50.956;4.640;2023-01-25T00:18:57;2.70;99.90
20698;DHT22;10508;50.956;4.640;2023-01-25T00:21:25;2.60;99.90
20698;DHT22;10508;50.956;4.640;2023-01-25T00:23:51;2.60;99.90
20698;DHT22;10508;50.956;4.640;2023-01-25T00:26:17;2.60;99.90
20698;DHT22;10508;50.956;4.640;2023-01-25T00:28:51;2.60;99.90
20698;DHT22;10508;50.956;4.640;2023-01-25T00:36:50;2.60;99.90
20698;DHT22;10508;50.956;4.640;2023-01-25T00:39:17;2.60;99.90
20698;DHT22;10508;50.956;4.640;2023-01-25T00:41:42;2.50;99.90
20698;DHT22;10508;50.956;4.640;2023-01-25T00:44:08;2.50;99.90
20698;DHT22;10508;50.956;4.640;2023-01-25T00:46:34;2.50;99.90
20698;DHT22;10508;50.956;4.640;2023-01-25T00:49:00;2.50;99.90
20698;DHT22;10508;50.956;4.640;2023-01-25T00:51:25;2.50;99.90
20698;DHT22;10508;50.956;4.640;2023-01-25T00:53:51;2.60;99.90
20698;DHT22;10508;50.956;4.640;2023-01-25T00:56:17;2.60;99.90
20698;DHT22;10508;50.956;4.640;2023-01-25T00:58:42;2.50;99.90
20698;DHT22;10508;50.956;4.640;2023-01-25T01:01:09;2.50;99.90
20698;DHT22;10508;50.956;4.640;2023-01-25T01:03:34;2.40;99.90
20698;DHT22;10508;50.956;4.640;2023-01-25T01:06:09;2.40;99.90
20698;DHT22;10508;50.956;4.640;2023-01-25T01:08:38;2.50;99.90
20698;DHT22;10508;50.956;4.640;2023-01-25T01:11:07;2.50;99.90
20698;DHT22;10508;50.956;4.640;2023-01-25T01:13:33;2.40;99.90
20698;DHT22;10508;50.956;4.640;2023-01-25T01:16:00;2.40;99.90
20698;DHT22;10508;50.956;4.640;2023-01-25T01:18:37;2.40;99.90
20698;DHT22;10508;50.956;4.640;2023-01-25T01:21:03;2.50;99.90
20698;DHT22;10508;50.956;4.640;2023-01-25T01:23:29;2.40;99.90
20698;DHT22;10508;50.956;4.640;2023-01-25T01:25:59;2.50;99.90
20698;DHT22;10508;50.956;4.640;2023-01-25T01:28:24;2.50;99.90
20698;DHT22;10508;50.956;4.640;2023-01-25T01:30:50;2.60;99.90
20698;DHT22;10508;50.956;4.640;2023-01-25T01:33:15;2.60;99.90
20698;DHT22;10508;50.956;4.640;2023-01-25T01:35:41;2.60;99.90
20698;DHT22;10508;50.956;4.640;2023-01-25T01:38:07;2.50;99.90
20698;DHT22;10508;50.956;4.640;2023-01-25T01:40:32;2.50;99.90
20698;DHT22;10508;50.956;4.640;2023-01-25T01:43:04;2.60;99.90
20698;DHT22;10508;50.956;4.640;2023-01-25T01:48:27;2.70;99.90
20698;DHT22;10508;50.956;4.640;2023-01-25T01:50:59;2.60;99.90
20698;DHT22;10508;50.956;4.640;2023-01-25T01:53:26;2.50;99.90
20698;DHT22;10508;50.956;4.640;2023-01-25T01:55:55;2.40;99.90
20698;DHT22;10508;50.956;4.640;2023-01-25T01:58:22;2.40;99.90
20698;DHT22;10508;50.956;4.640;2023-01-25T02:00:47;2.30;99.90
20698;DHT22;10508;50.956;4.640;2023-01-25T02:03:13;2.30;99.90
20698;DHT22;10508;50.956;4.640;2023-01-25T02:08:09;2.30;99.90
20698;DHT22;10508;50.956;4.640;2023-01-25T02:10:37;2.30;99.90
20698;DHT22;10508;50.956;4.640;2023-01-25T02:13:03;2.30;99.90
20698;DHT22;10508;50.956;4.640;2023-01-25T02:15:49;2.40;99.90
20698;DHT22;10508;50.956;4.640;2023-01-25T02:18:17;2.40;99.90
20698;DHT22;10508;50.956;4.640;2023-01-25T02:20:45;2.50;99.90
20698;DHT22;10508;50.956;4.640;2023-01-25T02:23:24;2.50;99.90
20698;DHT22;10508;50.956;4.640;2023-01-25T02:25:53;2.40;99.90
20698;DHT22;10508;50.956;4.640;2023-01-25T02:30:56;2.40;99.90
20698;DHT22;10508;50.956;4.640;2023-01-25T02:33:23;2.40;99.90
20698;DHT22;10508;50.956;4.640;2023-01-25T02:35:53;2.40;99.90
20698;DHT22;10508;50.956;4.640;2023-01-25T02:38:21;2.40;99.90
20698;DHT22;10508;50.956;4.640;2023-01-25T02:40:51;2.30;99.90
20698;DHT22;10508;50.956;4.640;2023-01-25T02:43:18;2.20;99.90
20698;DHT22;10508;50.956;4.640;2023-01-25T02:45:48;2.20;99.90
20698;DHT22;10508;50.956;4.640;2023-01-25T02:48:14;2.20;99.90
20698;DHT22;10508;50.956;4.640;2023-01-25T02:50:40;2.20;99.90
20698;DHT22;10508;50.956;4.640;2023-01-25T02:53:06;2.20;99.90
20698;DHT22;10508;50.956;4.640;2023-01-25T02:55:31;2.20;99.90
20698;DHT22;10508;50.956;4.640;2023-01-25T02:57:57;2.20;99.90
20698;DHT22;10508;50.956;4.640;2023-01-25T03:00:22;2.20;99.90
20698;DHT22;10508;50.956;4.640;2023-01-25T03:02:48;2.20;99.90
20698;DHT22;10508;50.956;4.640;2023-01-25T03:05:14;2.30;99.90
20698;DHT22;10508;50.956;4.640;2023-01-25T03:07:40;2.30;99.90
20698;DHT22;10508;50.956;4.640;2023-01-25T03:10:11;2.30;99.90
20698;DHT22;10508;50.956;4.640;2023-01-25T03:12:36;2.40;99.90
20698;DHT22;10508;50.956;4.640;2023-01-25T03:15:02;2.30;99.90
20698;DHT22;10508;50.956;4.640;2023-01-25T03:17:28;2.30;99.90
20698;DHT22;10508;50.956;4.640;2023-01-25T03:19:55;2.20;99.90
20698;DHT22;10508;50.956;4.640;2023-01-25T03:22:21;2.20;99.90
20698;DHT22;10508;50.956;4.640;2023-01-25T03:24:46;2.20;99.90
20698;DHT22;10508;50.956;4.640;2023-01-25T03:27:12;2.20;99.90
20698;DHT22;10508;50.956;4.640;2023-01-25T03:29:39;2.10;99.90
20698;DHT22;10508;50.956;4.640;2023-01-25T03:32:06;2.10;99.90
20698;DHT22;10508;50.956;4.640;2023-01-25T03:34:32;2.10;99.90
20698;DHT22;10508;50.956;4.640;2023-01-25T03:36:57;2.10;99.90
20698;DHT22;10508;50.956;4.640;2023-01-25T03:39:23;2.20;99.90
20698;DHT22;10508;50.956;4.640;2023-01-25T03:41:49;2.00;99.90
20698;DHT22;10508;50.956;4.640;2023-01-25T03:44:14;2.00;99.90
20698;DHT22;10508;50.956;4.640;2023-01-25T03:46:40;1.90;99.90
20698;DHT22;10508;50.956;4.640;2023-01-25T03:49:07;2.00;99.90
20698;DHT22;10508;50.956;4.640;2023-01-25T03:51:33;2.00;99.90
20698;DHT22;10508;50.956;4.640;2023-01-25T03:53:59;2.00;99.90
20698;DHT22;10508;50.956;4.640;2023-01-25T03:56:25;2.00;99.90
20698;DHT22;10508;50.956;4.640;2023-01-25T03:58:51;1.90;99.90
20698;DHT22;10508;50.956;4.640;2023-01-25T04:01:16;2.00;99.90
20698;DHT22;10508;50.956;4.640;2023-01-25T04:03:42;2.00;99.90
20698;DHT22;10508;50.956;4.640;2023-01-25T04:06:08;2.00;99.90
20698;DHT22;10508;50.956;4.640;2023-01-25T04:08:34;2.10;99.90
20698;DHT22;10508;50.956;4.640;2023-01-25T04:11:02;2.10;99.90
20698;DHT22;10508;50.956;4.640;2023-01-25T04:13:28;2.10;99.90
20698;DHT22;10508;50.956;4.640;2023-01-25T04:15:54;2.10;99.90
20698;DHT22;10508;50.956;4.640;2023-01-25T04:18:20;2.10;99.90
20698;DHT22;10508;50.956;4.640;2023-01-25T04:20:52;2.00;99.90
20698;DHT22;10508;50.956;4.640;2023-01-25T04:23:18;2.10;99.90
20698;DHT22;10508;50.956;4.640;2023-01-25T04:25:58;2.10;99.90
20698;DHT22;10508;50.956;4.640;2023-01-25T04:28:25;2.10;99.90
20698;DHT22;10508;50.956;4.640;2023-01-25T04:30:53;2.00;99.90
20698;DHT22;10508;50.956;4.640;2023-01-25T04:33:19;2.20;99.90
20698;DHT22;10508;50.956;4.640;2023-01-25T04:35:44;2.00;99.90
20698;DHT22;10508;50.956;4.640;2023-01-25T04:38:10;2.10;99.90
20698;DHT22;10508;50.956;4.640;2023-01-25T04:40:36;2.00;99.90
20698;DHT22;10508;50.956;4.640;2023-01-25T04:43:02;2.00;99.90
20698;DHT22;10508;50.956;4.640;2023-01-25T04:45:28;1.90;99.90
20698;DHT22;10508;50.956;4.640;2023-01-25T04:47:58;1.80;99.90
20698;DHT22;10508;50.956;4.640;2023-01-25T04:50:24;1.80;99.90
20698;DHT22;10508;50.956;4.640;2023-01-25T04:52:49;1.80;99.90
20698;DHT22;10508;50.956;4.640;2023-01-25T04:55:15;1.90;99.90
20698;DHT22;10508;50.956;4.640;2023-01-25T04:57:41;1.80;99.90
20698;DHT22;10508;50.956;4.640;2023-01-25T05:00:07;1.80;99.90
20698;DHT22;10508;50.956;4.640;2023-01-25T05:02:33;1.80;99.90
20698;DHT22;10508;50.956;4.640;2023-01-25T05:04:59;1.80;99.90
20698;DHT22;10508;50.956;4.640;2023-01-25T05:07:24;1.80;99.90
20698;DHT22;10508;50.956;4.640;2023-01-25T05:10:09;1.90;99.90
20698;DHT22;10508;50.956;4.640;2023-01-25T05:12:35;1.90;99.90
20698;DHT22;10508;50.956;4.640;2023-01-25T05:15:00;1.90;99.90
20698;DHT22;10508;50.956;4.640;2023-01-25T05:17:26;1.80;99.90
20698;DHT22;10508;50.956;4.640;2023-01-25T05:19:51;1.80;99.90
20698;DHT22;10508;50.956;4.640;2023-01-25T05:22:18;1.80;99.90
20698;DHT22;10508;50.956;4.640;2023-01-25T05:24:46;1.80;99.90
20698;DHT22;10508;50.956;4.640;2023-01-25T05:27:14;1.90;99.90
20698;DHT22;10508;50.956;4.640;2023-01-25T05:29:42;1.80;99.90
20698;DHT22;10508;50.956;4.640;2023-01-25T05:32:12;1.80;99.90
20698;DHT22;10508;50.956;4.640;2023-01-25T05:34:38;1.70;99.90
20698;DHT22;10508;50.956;4.640;2023-01-25T05:37:06;1.60;99.90
20698;DHT22;10508;50.956;4.640;2023-01-25T05:39:32;1.60;99.90
20698;DHT22;10508;50.956;4.640;2023-01-25T05:42:17;1.60;99.90
20698;DHT22;10508;50.956;4.640;2023-01-25T05:44:43;1.80;99.90
20698;DHT22;10508;50.956;4.640;2023-01-25T05:47:12;1.90;99.90
20698;DHT22;10508;50.956;4.640;2023-01-25T05:49:38;1.90;99.90
20698;DHT22;10508;50.956;4.640;2023-01-25T05:52:04;1.80;99.90
20698;DHT22;10508;50.956;4.640;2023-01-25T05:54:29;1.90;99.90
20698;DHT22;10508;50.956;4.640;2023-01-25T05:56:55;1.80;99.90
20698;DHT22;10508;50.956;4.640;2023-01-25T05:59:21;1.80;99.90
20698;DHT22;10508;50.956;4.640;2023-01-25T06:01:46;1.80;99.90
20698;DHT22;10508;50.956;4.640;2023-01-25T06:04:14;1.90;99.90
20698;DHT22;10508;50.956;4.640;2023-01-25T06:06:40;1.90;99.90
20698;DHT22;10508;50.956;4.640;2023-01-25T06:09:05;1.80;99.90
20698;DHT22;10508;50.956;4.640;2023-01-25T06:11:31;1.90;99.90
20698;DHT22;10508;50.956;4.640;2023-01-25T06:13:57;1.90;99.90
20698;DHT22;10508;50.956;4.640;2023-01-25T06:16:23;1.80;99.90
20698;DHT22;10508;50.956;4.640;2023-01-25T06:18:48;1.70;99.90
20698;DHT22;10508;50.956;4.640;2023-01-25T06:21:14;1.60;99.90
20698;DHT22;10508;50.956;4.640;2023-01-25T06:23:40;1.70;99.90
20698;DHT22;10508;50.956;4.640;2023-01-25T06:26:11;1.70;99.90
20698;DHT22;10508;50.956;4.640;2023-01-25T06:28:37;1.60;99.90
20698;DHT22;10508;50.956;4.640;2023-01-25T06:31:08;1.70;99.90
20698;DHT22;10508;50.956;4.640;2023-01-25T06:33:35;1.60;99.90
20698;DHT22;10508;50.956;4.640;2023-01-25T06:36:14;1.60;99.90
20698;DHT22;10508;50.956;4.640;2023-01-25T06:38:40;1.70;99.90
20698;DHT22;10508;50.956;4.640;2023-01-25T06:41:08;1.70;99.90
20698;DHT22;10508;50.956;4.640;2023-01-25T06:43:34;1.70;99.90
20698;DHT22;10508;50.956;4.640;2023-01-25T06:46:02;1.70;99.90
20698;DHT22;10508;50.956;4.640;2023-01-25T06:48:29;1.60;99.90
20698;DHT22;10508;50.956;4.640;2023-01-25T06:51:00;1.70;99.90
20698;DHT22;10508;50.956;4.640;2023-01-25T06:53:27;1.60;99.90
20698;DHT22;10508;50.956;4.640;2023-01-25T06:56:04;1.70;99.90
20698;DHT22;10508;50.956;4.640;2023-01-25T06:58:31;1.60;99.90
20698;DHT22;10508;50.956;4.640;2023-01-25T07:01:04;1.50;99.90
20698;DHT22;10508;50.956;4.640;2023-01-25T07:03:31;1.60;99.90
20698;DHT22;10508;50.956;4.640;2023-01-25T07:06:01;1.60;99.90
20698;DHT22;10508;50.956;4.640;2023-01-25T07:08:27;1.70;99.90
20698;DHT22;10508;50.956;4.640;2023-01-25T07:10:55;1.70;99.90
20698;DHT22;10508;50.956;4.640;2023-01-25T07:13:21;1.70;99.90
20698;DHT22;10508;50.956;4.640;2023-01-25T07:15:58;1.50;99.90
20698;DHT22;10508;50.956;4.640;2023-01-25T07:18:25;1.50;99.90
20698;DHT22;10508;50.956;4.640;2023-01-25T07:20:51;1.60;99.90
20698;DHT22;10508;50.956;4.640;2023-01-25T07:23:17;1.70;99.90
20698;DHT22;10508;50.956;4.640;2023-01-25T07:25:48;1.60;99.90
20698;DHT22;10508;50.956;4.640;2023-01-25T07:28:15;1.70;99.90
20698;DHT22;10508;50.956;4.640;2023-01-25T07:30:42;1.50;99.90
20698;DHT22;10508;50.956;4.640;2023-01-25T07:33:08;1.50;99.90
20698;DHT22;10508;50.956;4.640;2023-01-25T07:35:35;1.60;99.90
20698;DHT22;10508;50.956;4.640;2023-01-25T07:38:00;1.70;99.90
20698;DHT22;10508;50.956;4.640;2023-01-25T07:40:26;1.70;99.90
20698;DHT22;10508;50.956;4.640;2023-01-25T07:42:52;1.70;99.90
20698;DHT22;10508;50.956;4.640;2023-01-25T07:45:19;1.70;99.90
20698;DHT22;10508;50.956;4.640;2023-01-25T07:47:45;1.70;99.90
20698;DHT22;10508;50.956;4.640;2023-01-25T07:50:11;1.60;99.90
20698;DHT22;10508;50.956;4.640;2023-01-25T07:52:37;1.60;99.90
20698;DHT22;10508;50.956;4.640;2023-01-25T07:55:02;1.60;99.90
20698;DHT22;10508;50.956;4.640;2023-01-25T07:57:28;1.60;99.90
20698;DHT22;10508;50.956;4.640;2023-01-25T07:59:54;1.60;99.90
20698;DHT22;10508;50.956;4.640;2023-01-25T08:02:20;1.60;99.90
20698;DHT22;10508;50.956;4.640;2023-01-25T08:04:45;1.70;99.90
20698;DHT22;10508;50.956;4.640;2023-01-25T08:07:12;1.70;99.90
20698;DHT22;10508;50.956;4.640;2023-01-25T08:09:39;1.70;99.90
20698;DHT22;10508;50.956;4.640;2023-01-25T08:12:06;1.60;99.90
20698;DHT22;10508;50.956;4.640;2023-01-25T08:14:32;1.70;99.90
20698;DHT22;10508;50.956;4.640;2023-01-25T08:16:57;1.70;99.90
20698;DHT22;10508;50.956;4.640;2023-01-25T08:19:23;1.70;99.90
20698;DHT22;10508;50.956;4.640;2023-01-25T08:21:51;1.70;99.90
20698;DHT22;10508;50.956;4.640;2023-01-25T08:24:17;1.70;99.90
20698;DHT22;10508;50.956;4.640;2023-01-25T08:26:42;1.70;99.90
20698;DHT22;10508;50.956;4.640;2023-01-25T08:29:10;1.80;99.90
20698;DHT22;10508;50.956;4.640;2023-01-25T08:31:39;1.70;99.90
20698;DHT22;10508;50.956;4.640;2023-01-25T08:34:05;1.70;99.90
20698;DHT22;10508;50.956;4.640;2023-01-25T08:36:31;1.80;99.90
20698;DHT22;10508;50.956;4.640;2023-01-25T08:39:00;1.70;99.90
20698;DHT22;10508;50.956;4.640;2023-01-25T08:41:28;1.70;99.90
20698;DHT22;10508;50.956;4.640;2023-01-25T08:43:54;1.80;99.90
20698;DHT22;10508;50.956;4.640;2023-01-25T08:46:22;1.70;99.90
20698;DHT22;10508;50.956;4.640;2023-01-25T08:48:51;1.60;99.90
20698;DHT22;10508;50.956;4.640;2023-01-25T08:51:17;1.60;99.90
20698;DHT22;10508;50.956;4.640;2023-01-25T08:53:43;1.60;99.90
20698;DHT22;10508;50.956;4.640;2023-01-25T08:56:10;1.70;99.90
20698;DHT22;10508;50.956;4.640;2023-01-25T08:58:38;1.70;99.90
20698;DHT22;10508;50.956;4.640;2023-01-25T09:01:06;1.70;99.90
20698;DHT22;10508;50.956;4.640;2023-01-25T09:03:38;1.60;99.90
20698;DHT22;10508;50.956;4.640;2023-01-25T09:06:04;1.60;99.90
20698;DHT22;10508;50.956;4.640;2023-01-25T09:08:31;1.50;99.90
20698;DHT22;10508;50.956;4.640;2023-01-25T09:11:04;1.50;99.90
20698;DHT22;10508;50.956;4.640;2023-01-25T09:13:30;1.40;99.90
20698;DHT22;10508;50.956;4.640;2023-01-25T09:16:01;1.40;99.90
20698;DHT22;10508;50.956;4.640;2023-01-25T09:18:28;1.40;99.90
20698;DHT22;10508;50.956;4.640;2023-01-25T09:20:54;1.30;99.90
20698;DHT22;10508;50.956;4.640;2023-01-25T09:23:20;1.30;99.90
20698;DHT22;10508;50.956;4.640;2023-01-25T09:25:54;1.40;99.90
20698;DHT22;10508;50.956;4.640;2023-01-25T09:28:20;1.30;99.90
20698;DHT22;10508;50.956;4.640;2023-01-25T09:30:52;1.30;99.90
20698;DHT22;10508;50.956;4.640;2023-01-25T09:33:18;1.50;99.90
20698;DHT22;10508;50.956;4.640;2023-01-25T09:35:47;1.50;99.90
20698;DHT22;10508;50.956;4.640;2023-01-25T09:38:13;1.60;99.90
20698;DHT22;10508;50.956;4.640;2023-01-25T09:40:47;1.70;99.90
20698;DHT22;10508;50.956;4.640;2023-01-25T09:45:56;1.70;99.90
20698;DHT22;10508;50.956;4.640;2023-01-25T09:48:34;1.80;99.90
20698;DHT22;10508;50.956;4.640;2023-01-25T09:53:51;1.80;99.90
20698;DHT22;10508;50.956;4.640;2023-01-25T09:56:37;1.70;99.90
20698;DHT22;10508;50.956;4.640;2023-01-25T09:59:11;1.70;99.90
20698;DHT22;10508;50.956;4.640;2023-01-25T10:01:50;1.70;99.90
20698;DHT22;10508;50.956;4.640;2023-01-25T10:04:21;1.70;99.90
20698;DHT22;10508;50.956;4.640;2023-01-25T10:06:55;1.90;99.90
20698;DHT22;10508;50.956;4.640;2023-01-25T10:09:31;2.00;99.90
20698;DHT22;10508;50.956;4.640;2023-01-25T10:12:05;2.00;99.90
20698;DHT22;10508;50.956;4.640;2023-01-25T10:14:33;1.80;99.90
20698;DHT22;10508;50.956;4.640;2023-01-25T10:17:28;1.90;99.90
20698;DHT22;10508;50.956;4.640;2023-01-25T10:22:55;2.00;99.90
20698;DHT22;10508;50.956;4.640;2023-01-25T10:25:31;1.90;99.90
20698;DHT22;10508;50.956;4.640;2023-01-25T10:33:14;1.80;99.90
20698;DHT22;10508;50.956;4.640;2023-01-25T10:35:44;1.80;99.90
20698;DHT22;10508;50.956;4.640;2023-01-25T10:38:27;1.90;99.90
20698;DHT22;10508;50.956;4.640;2023-01-25T10:41:03;1.70;99.90
20698;DHT22;10508;50.956;4.640;2023-01-25T10:43:31;1.80;99.90
20698;DHT22;10508;50.956;4.640;2023-01-25T10:45:57;2.00;99.90
20698;DHT22;10508;50.956;4.640;2023-01-25T10:48:26;1.90;99.90
20698;DHT22;10508;50.956;4.640;2023-01-25T10:50:54;1.80;99.90
20698;DHT22;10508;50.956;4.640;2023-01-25T10:53:31;1.70;99.90
20698;DHT22;10508;50.956;4.640;2023-01-25T10:58:38;1.80;99.90
20698;DHT22;10508;50.956;4.640;2023-01-25T11:01:06;1.90;99.90
20698;DHT22;10508;50.956;4.640;2023-01-25T11:03:37;1.80;99.90
20698;DHT22;10508;50.956;4.640;2023-01-25T11:06:05;1.70;99.90
20698;DHT22;10508;50.956;4.640;2023-01-25T11:08:32;1.80;99.90
20698;DHT22;10508;50.956;4.640;2023-01-25T11:10:59;1.90;99.90
20698;DHT22;10508;50.956;4.640;2023-01-25T11:13:27;2.00;99.90
20698;DHT22;10508;50.956;4.640;2023-01-25T11:18:51;2.10;99.90
20698;DHT22;10508;50.956;4.640;2023-01-25T11:21:20;2.00;99.90
20698;DHT22;10508;50.956;4.640;2023-01-25T11:26:38;1.80;99.90
20698;DHT22;10508;50.956;4.640;2023-01-25T11:29:18;1.90;99.90
20698;DHT22;10508;50.956;4.640;2023-01-25T11:31:54;1.90;99.90
20698;DHT22;10508;50.956;4.640;2023-01-25T11:34:26;1.60;99.90
20698;DHT22;10508;50.956;4.640;2023-01-25T11:45:34;1.40;99.90
20698;DHT22;10508;50.956;4.640;2023-01-25T11:53:50;1.50;99.90
20698;DHT22;10508;50.956;4.640;2023-01-25T12:08:10;2.00;99.90
20698;DHT22;10508;50.956;4.640;2023-01-25T12:13:17;2.10;99.90
20698;DHT22;10508;50.956;4.640;2023-01-25T12:21:23;2.10;99.90
20698;DHT22;10508;50.956;4.640;2023-01-25T12:29:48;1.70;99.90
20698;DHT22;10508;50.956;4.640;2023-01-25T12:32:23;1.80;99.90
20698;DHT22;10508;50.956;4.640;2023-01-25T12:35:22;1.80;99.90
20698;DHT22;10508;50.956;4.640;2023-01-25T12:37:46;1.80;99.90
20698;DHT22;10508;50.956;4.640;2023-01-25T12:41:01;1.70;99.90
20698;DHT22;10508;50.956;4.640;2023-01-25T12:44:12;1.70;99.90
20698;DHT22;10508;50.956;4.640;2023-01-25T12:46:28;1.60;99.90
20698;DHT22;10508;50.956;4.640;2023-01-25T12:48:58;1.60;99.90
20698;DHT22;10508;50.956;4.640;2023-01-25T12:51:45;1.50;99.90
20698;DHT22;10508;50.956;4.640;2023-01-25T12:54:33;1.40;99.90
20698;DHT22;10508;50.956;4.640;2023-01-25T12:57:24;1.60;99.90
20698;DHT22;10508;50.956;4.640;2023-01-25T13:00:07;1.80;99.90
20698;DHT22;10508;50.956;4.640;2023-01-25T13:08:12;1.70;99.90
20698;DHT22;10508;50.956;4.640;2023-01-25T13:10:45;1.80;99.90
20698;DHT22;10508;50.956;4.640;2023-01-25T13:13:26;1.70;99.90
20698;DHT22;10508;50.956;4.640;2023-01-25T13:15:53;1.60;99.90
20698;DHT22;10508;50.956;4.640;2023-01-25T13:20:54;1.70;99.90
20698;DHT22;10508;50.956;4.640;2023-01-25T13:23:42;1.70;99.90
20698;DHT22;10508;50.956;4.640;2023-01-25T13:28:57;1.60;99.90
20698;DHT22;10508;50.956;4.640;2023-01-25T13:34:08;1.40;99.90
20698;DHT22;10508;50.956;4.640;2023-01-25T13:44:49;1.60;99.90
20698;DHT22;10508;50.956;4.640;2023-01-25T13:47:19;1.60;99.90
20698;DHT22;10508;50.956;4.640;2023-01-25T13:50:04;1.80;99.90
20698;DHT22;10508;50.956;4.640;2023-01-25T13:52:32;1.70;99.90
20698;DHT22;10508;50.956;4.640;2023-01-25T13:55:00;1.80;99.90
20698;DHT22;10508;50.956;4.640;2023-01-25T13:57:30;1.80;99.90
20698;DHT22;10508;50.956;4.640;2023-01-25T14:00:06;1.80;99.90
20698;DHT22;10508;50.956;4.640;2023-01-25T14:02:33;1.80;99.90
20698;DHT22;10508;50.956;4.640;2023-01-25T14:05:00;1.80;99.90
20698;DHT22;10508;50.956;4.640;2023-01-25T14:07:32;1.70;99.90
20698;DHT22;10508;50.956;4.640;2023-01-25T14:10:06;1.70;99.90
20698;DHT22;10508;50.956;4.640;2023-01-25T14:12:36;1.80;99.90
20698;DHT22;10508;50.956;4.640;2023-01-25T14:15:22;1.80;99.90
20698;DHT22;10508;50.956;4.640;2023-01-25T14:20:36;1.90;99.90
20698;DHT22;10508;50.956;4.640;2023-01-25T14:23:01;1.90;99.90
20698;DHT22;10508;50.956;4.640;2023-01-25T14:25:28;2.10;99.90
20698;DHT22;10508;50.956;4.640;2023-01-25T14:27:55;2.00;99.90
20698;DHT22;10508;50.956;4.640;2023-01-25T14:30:33;2.00;99.90
20698;DHT22;10508;50.956;4.640;2023-01-25T14:33:21;2.00;99.90
20698;DHT22;10508;50.956;4.640;2023-01-25T14:35:46;1.70;99.90
20698;DHT22;10508;50.956;4.640;2023-01-25T14:38:33;1.70;99.90
20698;DHT22;10508;50.956;4.640;2023-01-25T14:43:41;1.70;99.90
20698;DHT22;10508;50.956;4.640;2023-01-25T14:46:30;1.70;99.90
20698;DHT22;10508;50.956;4.640;2023-01-25T14:51:40;1.80;99.90
20698;DHT22;10508;50.956;4.640;2023-01-25T14:54:36;2.00;99.90
20698;DHT22;10508;50.956;4.640;2023-01-25T14:57:06;2.00;99.90
20698;DHT22;10508;50.956;4.640;2023-01-25T15:02:26;1.90;99.90
20698;DHT22;10508;50.956;4.640;2023-01-25T15:05:34;1.90;99.90
20698;DHT22;10508;50.956;4.640;2023-01-25T15:07:57;1.80;99.90
20698;DHT22;10508;50.956;4.640;2023-01-25T15:10:49;1.80;99.90
20698;DHT22;10508;50.956;4.640;2023-01-25T15:18:47;1.80;99.90
20698;DHT22;10508;50.956;4.640;2023-01-25T15:21:24;1.80;99.90
20698;DHT22;10508;50.956;4.640;2023-01-25T15:23:50;1.80;99.90
20698;DHT22;10508;50.956;4.640;2023-01-25T15:26:22;1.80;99.90
20698;DHT22;10508;50.956;4.640;2023-01-25T15:28:49;1.90;99.90
20698;DHT22;10508;50.956;4.640;2023-01-25T15:31:44;1.90;99.90
20698;DHT22;10508;50.956;4.640;2023-01-25T15:34:16;1.90;99.90
20698;DHT22;10508;50.956;4.640;2023-01-25T15:36:42;1.80;99.90
20698;DHT22;10508;50.956;4.640;2023-01-25T15:39:18;1.80;99.90
20698;DHT22;10508;50.956;4.640;2023-01-25T15:41:44;2.00;99.90
20698;DHT22;10508;50.956;4.640;2023-01-25T15:44:11;1.90;99.90
20698;DHT22;10508;50.956;4.640;2023-01-25T15:46:39;1.80;99.90
20698;DHT22;10508;50.956;4.640;2023-01-25T15:49:06;1.80;99.90
20698;DHT22;10508;50.956;4.640;2023-01-25T15:51:32;1.80;99.90
20698;DHT22;10508;50.956;4.640;2023-01-25T15:53:58;1.80;99.90
20698;DHT22;10508;50.956;4.640;2023-01-25T15:56:27;1.80;99.90
20698;DHT22;10508;50.956;4.640;2023-01-25T15:58:58;1.80;99.90
20698;DHT22;10508;50.956;4.640;2023-01-25T16:01:26;1.90;99.90
20698;DHT22;10508;50.956;4.640;2023-01-25T16:03:56;1.90;99.90
20698;DHT22;10508;50.956;4.640;2023-01-25T16:09:23;1.90;99.90
20698;DHT22;10508;50.956;4.640;2023-01-25T16:11:56;1.80;99.90
20698;DHT22;10508;50.956;4.640;2023-01-25T16:14:24;1.80;99.90
20698;DHT22;10508;50.956;4.640;2023-01-25T16:16:56;1.70;99.90
20698;DHT22;10508;50.956;4.640;2023-01-25T16:19:23;1.70;99.90
20698;DHT22;10508;50.956;4.640;2023-01-25T16:21:49;1.90;99.90
20698;DHT22;10508;50.956;4.640;2023-01-25T16:24:15;1.80;99.90
20698;DHT22;10508;50.956;4.640;2023-01-25T16:26:48;1.80;99.90
20698;DHT22;10508;50.956;4.640;2023-01-25T16:29:15;1.70;99.90
20698;DHT22;10508;50.956;4.640;2023-01-25T16:31:40;1.70;99.90
20698;DHT22;10508;50.956;4.640;2023-01-25T16:34:06;1.70;99.90
20698;DHT22;10508;50.956;4.640;2023-01-25T16:36:33;1.70;99.90
20698;DHT22;10508;50.956;4.640;2023-01-25T16:39:06;1.60;99.90
20698;DHT22;10508;50.956;4.640;2023-01-25T16:41:34;1.60;99.90
20698;DHT22;10508;50.956;4.640;2023-01-25T16:43:59;1.60;99.90
20698;DHT22;10508;50.956;4.640;2023-01-25T16:46:25;1.50;99.90
20698;DHT22;10508;50.956;4.640;2023-01-25T16:48:51;1.40;99.90
20698;DHT22;10508;50.956;4.640;2023-01-25T16:51:22;2.20;99.90
20698;DHT22;10508;50.956;4.640;2023-01-25T16:53:49;1.30;99.90
20698;DHT22;10508;50.956;4.640;2023-01-25T16:56:23;1.20;99.90
20698;DHT22;10508;50.956;4.640;2023-01-25T16:58:50;1.20;99.90
20698;DHT22;10508;50.956;4.640;2023-01-25T17:01:18;1.20;99.90
20698;DHT22;10508;50.956;4.640;2023-01-25T17:03:44;1.30;99.90
20698;DHT22;10508;50.956;4.640;2023-01-25T17:06:37;1.30;99.90
20698;DHT22;10508;50.956;4.640;2023-01-25T17:09:05;1.40;99.90
20698;DHT22;10508;50.956;4.640;2023-01-25T17:11:34;1.40;99.90
20698;DHT22;10508;50.956;4.640;2023-01-25T17:14:20;1.40;99.90
20698;DHT22;10508;50.956;4.640;2023-01-25T17:16:46;1.20;99.90
20698;DHT22;10508;50.956;4.640;2023-01-25T17:19:15;1.30;99.90
20698;DHT22;10508;50.956;4.640;2023-01-25T17:21:41;1.20;99.90
20698;DHT22;10508;50.956;4.640;2023-01-25T17:24:07;1.10;99.90
20698;DHT22;10508;50.956;4.640;2023-01-25T17:26:32;1.20;99.90
20698;DHT22;10508;50.956;4.640;2023-01-25T17:29:00;1.30;99.90
20698;DHT22;10508;50.956;4.640;2023-01-25T17:31:32;1.20;99.90
20698;DHT22;10508;50.956;4.640;2023-01-25T17:34:04;1.40;99.90
20698;DHT22;10508;50.956;4.640;2023-01-25T17:36:30;1.40;99.90
20698;DHT22;10508;50.956;4.640;2023-01-25T17:39:01;1.40;99.90
20698;DHT22;10508;50.956;4.640;2023-01-25T17:41:26;1.40;99.90
20698;DHT22;10508;50.956;4.640;2023-01-25T17:43:52;1.40;99.90
20698;DHT22;10508;50.956;4.640;2023-01-25T17:46:22;1.30;99.90
20698;DHT22;10508;50.956;4.640;2023-01-25T17:48:54;1.30;99.90
20698;DHT22;10508;50.956;4.640;2023-01-25T17:51:20;1.30;99.90
20698;DHT22;10508;50.956;4.640;2023-01-25T17:53:46;1.20;99.90
20698;DHT22;10508;50.956;4.640;2023-01-25T17:56:12;1.30;99.90